sensor_id;sensor_type;location;lat;lon;timestamp;temperature;humidity
45535;DHT22;35892;48.798;9.698;2023-01-24T00:00:35;3.80;99.90
45535;DHT22;35892;48.798;9.698;2023-01-24T00:03:02;3.90;99.90
45535;DHT22;35892;48.798;9.698;2023-01-24T00:05:29;3.80;99.90
45535;DHT22;35892;48.798;9.698;2023-01-24T00:07:56;3.70;99.90
45535;DHT22;35892;48.798;9.698;2023-01-24T00:10:23;3.70;99.90
45535;DHT22;35892;48.798;9.698;2023-01-24T00:12:51;3.80;99.90
45535;DHT22;35892;48.798;9.698;2023-01-24T00:15:17;3.80;99.90
45535;DHT22;35892;48.798;9.698;2023-01-24T00:17:49;3.80;99.90
45535;DHT22;35892;48.798;9.698;2023-01-24T00:20:18;3.80;99.90
45535;DHT22;35892;48.798;9.698;2023-01-24T00:22:45;3.80;99.90
45535;DHT22;35892;48.798;9.698;2023-01-24T00:25:14;3.80;99.90
45535;DHT22;35892;48.798;9.698;2023-01-24T00:27:43;3.80;99.90
45535;DHT22;35892;48.798;9.698;2023-01-24T00:30:12;3.80;99.90
45535;DHT22;35892;48.798;9.698;2023-01-24T00:32:39;3.80;99.90
45535;DHT22;35892;48.798;9.698;2023-01-24T00:35:05;3.70;99.90
45535;DHT22;35892;48.798;9.698;2023-01-24T00:37:32;3.80;99.90
45535;DHT22;35892;48.798;9.698;2023-01-24T00:39:59;3.80;99.90
45535;DHT22;35892;48.798;9.698;2023-01-24T00:42:25;3.80;99.90
45535;DHT22;35892;48.798;9.698;2023-01-24T00:44:52;3.80;99.90
45535;DHT22;35892;48.798;9.698;2023-01-24T00:47:19;3.80;99.90
45535;DHT22;35892;48.798;9.698;2023-01-24T00:49:48;3.80;99.90
45535;DHT22;35892;48.798;9.698;2023-01-24T00:52:17;3.70;99.90
45535;DHT22;35892;48.798;9.698;2023-01-24T00:54:44;3.70;99.90
45535;DHT22;35892;48.798;9.698;2023-01-24T00:57:10;3.70;99.90
45535;DHT22;35892;48.798;9.698;2023-01-24T00:59:37;3.70;99.90
45535;DHT22;35892;48.798;9.698;2023-01-24T01:02:07;3.80;99.90
45535;DHT22;35892;48.798;9.698;2023-01-24T01:04:34;4.00;99.90
45535;DHT22;35892;48.798;9.698;2023-01-24T01:07:01;3.90;99.90
45535;DHT22;35892;48.798;9.698;2023-01-24T01:09:28;3.80;99.90
45535;DHT22;35892;48.798;9.698;2023-01-24T01:11:54;3.90;99.90
45535;DHT22;35892;48.798;9.698;2023-01-24T01:14:21;3.90;99.90
45535;DHT22;35892;48.798;9.698;2023-01-24T01:16:50;4.00;99.90
45535;DHT22;35892;48.798;9.698;2023-01-24T01:19:17;3.80;99.90
45535;DHT22;35892;48.798;9.698;2023-01-24T01:21:43;3.70;99.90
45535;DHT22;35892;48.798;9.698;2023-01-24T01:24:11;3.70;99.90
45535;DHT22;35892;48.798;9.698;2023-01-24T01:26:37;3.80;99.90
45535;DHT22;35892;48.798;9.698;2023-01-24T01:29:07;3.70;99.90
45535;DHT22;35892;48.798;9.698;2023-01-24T01:31:34;3.60;99.90
45535;DHT22;35892;48.798;9.698;2023-01-24T01:34:01;3.70;99.90
45535;DHT22;35892;48.798;9.698;2023-01-24T01:36:30;3.60;99.90
45535;DHT22;35892;48.798;9.698;2023-01-24T01:39:02;3.60;99.90
45535;DHT22;35892;48.798;9.698;2023-01-24T01:41:29;3.60;99.90
45535;DHT22;35892;48.798;9.698;2023-01-24T01:44:16;3.60;99.90
45535;DHT22;35892;48.798;9.698;2023-01-24T01:47:02;3.70;99.90
45535;DHT22;35892;48.798;9.698;2023-01-24T01:49:31;3.60;99.90
45535;DHT22;35892;48.798;9.698;2023-01-24T01:52:01;3.70;99.90
45535;DHT22;35892;48.798;9.698;2023-01-24T01:54:33;3.70;99.90
45535;DHT22;35892;48.798;9.698;2023-01-24T01:57:03;3.70;99.90
45535;DHT22;35892;48.798;9.698;2023-01-24T01:59:33;3.70;99.90
45535;DHT22;35892;48.798;9.698;2023-01-24T02:02:04;3.80;99.90
45535;DHT22;35892;48.798;9.698;2023-01-24T02:04:33;3.80;99.90
45535;DHT22;35892;48.798;9.698;2023-01-24T02:07:05;3.70;99.90
45535;DHT22;35892;48.798;9.698;2023-01-24T02:09:37;3.70;99.90
45535;DHT22;35892;48.798;9.698;2023-01-24T02:12:05;3.70;99.90
45535;DHT22;35892;48.798;9.698;2023-01-24T02:14:35;3.70;99.90
45535;DHT22;35892;48.798;9.698;2023-01-24T02:17:21;3.60;99.90
45535;DHT22;35892;48.798;9.698;2023-01-24T02:22:25;3.60;99.90
45535;DHT22;35892;48.798;9.698;2023-01-24T02:24:59;3.50;99.90
45535;DHT22;35892;48.798;9.698;2023-01-24T02:27:26;3.50;99.90
45535;DHT22;35892;48.798;9.698;2023-01-24T02:29:55;3.50;99.90
45535;DHT22;35892;48.798;9.698;2023-01-24T02:32:23;3.60;99.90
45535;DHT22;35892;48.798;9.698;2023-01-24T02:34:52;3.60;99.90
45535;DHT22;35892;48.798;9.698;2023-01-24T02:37:21;3.50;99.90
45535;DHT22;35892;48.798;9.698;2023-01-24T02:42:18;3.50;99.90
45535;DHT22;35892;48.798;9.698;2023-01-24T02:47:18;3.50;99.90
45535;DHT22;35892;48.798;9.698;2023-01-24T02:49:45;3.60;99.90
45535;DHT22;35892;48.798;9.698;2023-01-24T02:52:14;3.60;99.90
45535;DHT22;35892;48.798;9.698;2023-01-24T02:54:59;3.60;99.90
45535;DHT22;35892;48.798;9.698;2023-01-24T02:57:26;3.60;99.90
45535;DHT22;35892;48.798;9.698;2023-01-24T03:00:11;3.60;99.90
45535;DHT22;35892;48.798;9.698;2023-01-24T03:02:40;3.60;99.90
45535;DHT22;35892;48.798;9.698;2023-01-24T03:05:07;3.60;99.90
45535;DHT22;35892;48.798;9.698;2023-01-24T03:07:34;3.60;99.90
45535;DHT22;35892;48.798;9.698;2023-01-24T03:10:10;3.60;99.90
45535;DHT22;35892;48.798;9.698;2023-01-24T03:12:39;3.70;99.90
45535;DHT22;35892;48.798;9.698;2023-01-24T03:15:25;3.70;99.90
45535;DHT22;35892;48.798;9.698;2023-01-24T03:18:10;3.60;99.90
45535;DHT22;35892;48.798;9.698;2023-01-24T03:20:55;3.70;99.90
45535;DHT22;35892;48.798;9.698;2023-01-24T03:23:41;3.80;99.90
45535;DHT22;35892;48.798;9.698;2023-01-24T03:26:26;3.70;99.90
45535;DHT22;35892;48.798;9.698;2023-01-24T03:29:11;3.70;99.90
45535;DHT22;35892;48.798;9.698;2023-01-24T03:31:59;3.70;99.90
45535;DHT22;35892;48.798;9.698;2023-01-24T03:34:44;3.70;99.90
45535;DHT22;35892;48.798;9.698;2023-01-24T03:37:18;3.70;99.90
45535;DHT22;35892;48.798;9.698;2023-01-24T03:40:05;3.70;99.90
45535;DHT22;35892;48.798;9.698;2023-01-24T03:42:32;3.70;99.90
45535;DHT22;35892;48.798;9.698;2023-01-24T03:45:00;3.70;99.90
45535;DHT22;35892;48.798;9.698;2023-01-24T03:47:31;3.60;99.90
45535;DHT22;35892;48.798;9.698;2023-01-24T03:50:00;3.60;99.90
45535;DHT22;35892;48.798;9.698;2023-01-24T03:52:46;3.60;99.90
45535;DHT22;35892;48.798;9.698;2023-01-24T03:55:12;3.60;99.90
45535;DHT22;35892;48.798;9.698;2023-01-24T03:57:41;3.60;99.90
45535;DHT22;35892;48.798;9.698;2023-01-24T04:00:08;3.70;99.90
45535;DHT22;35892;48.798;9.698;2023-01-24T04:02:35;3.70;99.90
45535;DHT22;35892;48.798;9.698;2023-01-24T04:05:02;3.70;99.90
45535;DHT22;35892;48.798;9.698;2023-01-24T04:07:41;3.70;99.90
45535;DHT22;35892;48.798;9.698;2023-01-24T04:10:11;3.60;99.90
45535;DHT22;35892;48.798;9.698;2023-01-24T04:12:40;3.60;99.90
45535;DHT22;35892;48.798;9.698;2023-01-24T04:15:07;3.50;99.90
45535;DHT22;35892;48.798;9.698;2023-01-24T04:17:34;3.60;99.90
45535;DHT22;35892;48.798;9.698;2023-01-24T04:20:03;3.50;99.90
45535;DHT22;35892;48.798;9.698;2023-01-24T04:22:33;3.50;99.90
45535;DHT22;35892;48.798;9.698;2023-01-24T04:24:59;3.50;99.90
45535;DHT22;35892;48.798;9.698;2023-01-24T04:27:28;3.60;99.90
45535;DHT22;35892;48.798;9.698;2023-01-24T04:29:57;3.60;99.90
45535;DHT22;35892;48.798;9.698;2023-01-24T04:32:27;3.60;99.90
45535;DHT22;35892;48.798;9.698;2023-01-24T04:34:54;3.60;99.90
45535;DHT22;35892;48.798;9.698;2023-01-24T04:37:21;3.60;99.90
45535;DHT22;35892;48.798;9.698;2023-01-24T04:39:47;3.60;99.90
45535;DHT22;35892;48.798;9.698;2023-01-24T04:42:16;3.70;99.90
45535;DHT22;35892;48.798;9.698;2023-01-24T04:44:46;3.70;99.90
45535;DHT22;35892;48.798;9.698;2023-01-24T04:47:14;3.60;99.90
45535;DHT22;35892;48.798;9.698;2023-01-24T04:49:41;3.50;99.90
45535;DHT22;35892;48.798;9.698;2023-01-24T04:52:11;3.50;99.90
45535;DHT22;35892;48.798;9.698;2023-01-24T04:54:41;3.60;99.90
45535;DHT22;35892;48.798;9.698;2023-01-24T04:57:10;3.50;99.90
45535;DHT22;35892;48.798;9.698;2023-01-24T04:59:37;3.60;99.90
45535;DHT22;35892;48.798;9.698;2023-01-24T05:02:04;3.60;99.90
45535;DHT22;35892;48.798;9.698;2023-01-24T05:04:33;3.60;99.90
45535;DHT22;35892;48.798;9.698;2023-01-24T05:07:00;3.70;99.90
45535;DHT22;35892;48.798;9.698;2023-01-24T05:09:26;3.60;99.90
45535;DHT22;35892;48.798;9.698;2023-01-24T05:11:53;3.50;99.90
45535;DHT22;35892;48.798;9.698;2023-01-24T05:14:22;3.60;99.90
45535;DHT22;35892;48.798;9.698;2023-01-24T05:16:48;3.50;99.90
45535;DHT22;35892;48.798;9.698;2023-01-24T05:19:15;3.60;99.90
45535;DHT22;35892;48.798;9.698;2023-01-24T05:21:47;3.60;99.90
45535;DHT22;35892;48.798;9.698;2023-01-24T05:24:16;3.60;99.90
45535;DHT22;35892;48.798;9.698;2023-01-24T05:26:44;3.60;99.90
45535;DHT22;35892;48.798;9.698;2023-01-24T05:29:11;3.60;99.90
45535;DHT22;35892;48.798;9.698;2023-01-24T05:31:39;3.50;99.90
45535;DHT22;35892;48.798;9.698;2023-01-24T05:34:11;3.70;99.90
45535;DHT22;35892;48.798;9.698;2023-01-24T05:36:40;3.70;99.90
45535;DHT22;35892;48.798;9.698;2023-01-24T05:39:09;3.60;99.90
45535;DHT22;35892;48.798;9.698;2023-01-24T05:41:38;3.60;99.90
45535;DHT22;35892;48.798;9.698;2023-01-24T05:44:07;3.50;99.90
45535;DHT22;35892;48.798;9.698;2023-01-24T05:46:37;3.60;99.90
45535;DHT22;35892;48.798;9.698;2023-01-24T05:49:04;3.50;99.90
45535;DHT22;35892;48.798;9.698;2023-01-24T05:51:33;3.60;99.90
45535;DHT22;35892;48.798;9.698;2023-01-24T05:54:00;3.60;99.90
45535;DHT22;35892;48.798;9.698;2023-01-24T05:56:26;3.60;99.90
45535;DHT22;35892;48.798;9.698;2023-01-24T05:58:54;3.50;99.90
45535;DHT22;35892;48.798;9.698;2023-01-24T06:01:26;3.50;99.90
45535;DHT22;35892;48.798;9.698;2023-01-24T06:03:53;3.60;99.90
45535;DHT22;35892;48.798;9.698;2023-01-24T06:06:23;3.60;99.90
45535;DHT22;35892;48.798;9.698;2023-01-24T06:08:53;3.60;99.90
45535;DHT22;35892;48.798;9.698;2023-01-24T06:11:20;3.60;99.90
45535;DHT22;35892;48.798;9.698;2023-01-24T06:13:53;3.60;99.90
45535;DHT22;35892;48.798;9.698;2023-01-24T06:16:23;3.60;99.90
45535;DHT22;35892;48.798;9.698;2023-01-24T06:18:50;3.60;99.90
45535;DHT22;35892;48.798;9.698;2023-01-24T06:24:04;3.50;99.90
45535;DHT22;35892;48.798;9.698;2023-01-24T06:26:34;3.50;99.90
45535;DHT22;35892;48.798;9.698;2023-01-24T06:29:03;3.60;99.90
45535;DHT22;35892;48.798;9.698;2023-01-24T06:31:43;3.60;99.90
45535;DHT22;35892;48.798;9.698;2023-01-24T06:34:21;3.60;99.90
45535;DHT22;35892;48.798;9.698;2023-01-24T06:39:22;3.60;99.90
45535;DHT22;35892;48.798;9.698;2023-01-24T06:41:51;3.50;99.90
45535;DHT22;35892;48.798;9.698;2023-01-24T06:44:18;3.60;99.90
45535;DHT22;35892;48.798;9.698;2023-01-24T06:46:45;3.60;99.90
45535;DHT22;35892;48.798;9.698;2023-01-24T06:49:14;3.60;99.90
45535;DHT22;35892;48.798;9.698;2023-01-24T06:51:48;3.60;99.90
45535;DHT22;35892;48.798;9.698;2023-01-24T06:54:17;3.60;99.90
45535;DHT22;35892;48.798;9.698;2023-01-24T06:56:46;3.60;99.90
45535;DHT22;35892;48.798;9.698;2023-01-24T06:59:12;3.60;99.90
45535;DHT22;35892;48.798;9.698;2023-01-24T07:01:42;3.60;99.90
45535;DHT22;35892;48.798;9.698;2023-01-24T07:04:08;3.60;99.90
45535;DHT22;35892;48.798;9.698;2023-01-24T07:06:35;3.60;99.90
45535;DHT22;35892;48.798;9.698;2023-01-24T07:09:06;3.60;99.90
45535;DHT22;35892;48.798;9.698;2023-01-24T07:11:36;3.70;99.90
45535;DHT22;35892;48.798;9.698;2023-01-24T07:14:02;3.60;99.90
45535;DHT22;35892;48.798;9.698;2023-01-24T07:16:29;3.70;99.90
45535;DHT22;35892;48.798;9.698;2023-01-24T07:19:00;3.60;99.90
45535;DHT22;35892;48.798;9.698;2023-01-24T07:21:27;3.70;99.90
45535;DHT22;35892;48.798;9.698;2023-01-24T07:23:56;3.60;99.90
45535;DHT22;35892;48.798;9.698;2023-01-24T07:26:26;3.70;99.90
45535;DHT22;35892;48.798;9.698;2023-01-24T07:28:53;3.80;99.90
45535;DHT22;35892;48.798;9.698;2023-01-24T07:31:20;3.80;99.90
45535;DHT22;35892;48.798;9.698;2023-01-24T07:33:46;3.70;99.90
45535;DHT22;35892;48.798;9.698;2023-01-24T07:36:13;3.70;99.90
45535;DHT22;35892;48.798;9.698;2023-01-24T07:38:40;3.70;99.90
45535;DHT22;35892;48.798;9.698;2023-01-24T07:41:10;3.70;99.90
45535;DHT22;35892;48.798;9.698;2023-01-24T07:43:36;3.70;99.90
45535;DHT22;35892;48.798;9.698;2023-01-24T07:46:05;3.60;99.90
45535;DHT22;35892;48.798;9.698;2023-01-24T07:48:32;3.70;99.90
45535;DHT22;35892;48.798;9.698;2023-01-24T07:51:01;3.70;99.90
45535;DHT22;35892;48.798;9.698;2023-01-24T07:53:28;3.90;99.90
45535;DHT22;35892;48.798;9.698;2023-01-24T07:55:57;3.80;99.90
45535;DHT22;35892;48.798;9.698;2023-01-24T07:58:28;3.80;99.90
45535;DHT22;35892;48.798;9.698;2023-01-24T08:00:58;3.80;99.90
45535;DHT22;35892;48.798;9.698;2023-01-24T08:03:27;3.80;99.90
45535;DHT22;35892;48.798;9.698;2023-01-24T08:05:53;3.80;99.90
45535;DHT22;35892;48.798;9.698;2023-01-24T08:08:22;3.80;99.90
45535;DHT22;35892;48.798;9.698;2023-01-24T08:10:52;3.90;99.90
45535;DHT22;35892;48.798;9.698;2023-01-24T08:13:23;3.90;99.90
45535;DHT22;35892;48.798;9.698;2023-01-24T08:15:50;3.90;99.90
45535;DHT22;35892;48.798;9.698;2023-01-24T08:18:16;3.90;99.90
45535;DHT22;35892;48.798;9.698;2023-01-24T08:20:45;3.90;99.90
45535;DHT22;35892;48.798;9.698;2023-01-24T08:23:12;4.00;99.90
45535;DHT22;35892;48.798;9.698;2023-01-24T08:25:39;4.00;99.90
45535;DHT22;35892;48.798;9.698;2023-01-24T08:28:09;4.00;99.90
45535;DHT22;35892;48.798;9.698;2023-01-24T08:30:38;4.00;99.90
45535;DHT22;35892;48.798;9.698;2023-01-24T08:33:08;4.00;99.90
45535;DHT22;35892;48.798;9.698;2023-01-24T08:35:46;4.00;99.90
45535;DHT22;35892;48.798;9.698;2023-01-24T08:38:15;4.00;99.90
45535;DHT22;35892;48.798;9.698;2023-01-24T08:40:42;4.00;99.90
45535;DHT22;35892;48.798;9.698;2023-01-24T08:43:16;4.00;99.90
45535;DHT22;35892;48.798;9.698;2023-01-24T08:45:43;4.00;99.90
45535;DHT22;35892;48.798;9.698;2023-01-24T08:48:10;4.00;99.90
45535;DHT22;35892;48.798;9.698;2023-01-24T08:50:36;4.00;99.90
45535;DHT22;35892;48.798;9.698;2023-01-24T08:53:12;4.10;99.90
45535;DHT22;35892;48.798;9.698;2023-01-24T08:55:38;4.10;99.90
45535;DHT22;35892;48.798;9.698;2023-01-24T08:58:07;4.20;99.90
45535;DHT22;35892;48.798;9.698;2023-01-24T09:00:34;4.20;99.90
45535;DHT22;35892;48.798;9.698;2023-01-24T09:03:03;4.20;99.90
45535;DHT22;35892;48.798;9.698;2023-01-24T09:05:32;4.30;99.90
45535;DHT22;35892;48.798;9.698;2023-01-24T09:08:03;4.30;99.90
45535;DHT22;35892;48.798;9.698;2023-01-24T09:10:32;4.30;99.90
45535;DHT22;35892;48.798;9.698;2023-01-24T09:12:58;4.30;99.90
45535;DHT22;35892;48.798;9.698;2023-01-24T09:15:26;4.40;99.90
45535;DHT22;35892;48.798;9.698;2023-01-24T09:17:55;4.40;99.90
45535;DHT22;35892;48.798;9.698;2023-01-24T09:20:24;4.30;99.90
45535;DHT22;35892;48.798;9.698;2023-01-24T09:22:53;4.40;99.90
45535;DHT22;35892;48.798;9.698;2023-01-24T09:25:20;4.40;99.90
45535;DHT22;35892;48.798;9.698;2023-01-24T09:27:56;4.40;99.90
45535;DHT22;35892;48.798;9.698;2023-01-24T09:30:22;4.40;99.90
45535;DHT22;35892;48.798;9.698;2023-01-24T09:32:54;4.40;99.90
45535;DHT22;35892;48.798;9.698;2023-01-24T09:35:23;4.40;99.90
45535;DHT22;35892;48.798;9.698;2023-01-24T09:37:52;4.50;99.90
45535;DHT22;35892;48.798;9.698;2023-01-24T09:42:55;4.40;99.90
45535;DHT22;35892;48.798;9.698;2023-01-24T09:45:36;4.40;99.90
45535;DHT22;35892;48.798;9.698;2023-01-24T09:48:05;4.50;99.90
45535;DHT22;35892;48.798;9.698;2023-01-24T09:53:14;4.50;99.90
45535;DHT22;35892;48.798;9.698;2023-01-24T09:55:42;4.50;99.90
45535;DHT22;35892;48.798;9.698;2023-01-24T10:00:45;4.60;99.90
45535;DHT22;35892;48.798;9.698;2023-01-24T10:03:18;4.60;99.90
45535;DHT22;35892;48.798;9.698;2023-01-24T10:05:55;4.60;99.90
45535;DHT22;35892;48.798;9.698;2023-01-24T10:08:59;4.60;99.90
45535;DHT22;35892;48.798;9.698;2023-01-24T10:16:56;4.60;99.90
45535;DHT22;35892;48.798;9.698;2023-01-24T10:24:59;4.80;99.90
45535;DHT22;35892;48.798;9.698;2023-01-24T10:30:11;4.70;99.90
45535;DHT22;35892;48.798;9.698;2023-01-24T10:32:39;4.80;99.90
45535;DHT22;35892;48.798;9.698;2023-01-24T10:35:11;4.80;99.90
45535;DHT22;35892;48.798;9.698;2023-01-24T10:37:42;4.70;99.90
45535;DHT22;35892;48.798;9.698;2023-01-24T10:40:11;4.70;99.90
45535;DHT22;35892;48.798;9.698;2023-01-24T10:42:41;4.80;99.90
45535;DHT22;35892;48.798;9.698;2023-01-24T10:47:52;4.90;99.90
45535;DHT22;35892;48.798;9.698;2023-01-24T10:50:23;4.90;99.90
45535;DHT22;35892;48.798;9.698;2023-01-24T10:52:54;4.90;99.90
45535;DHT22;35892;48.798;9.698;2023-01-24T10:55:57;5.00;99.90
45535;DHT22;35892;48.798;9.698;2023-01-24T10:58:32;5.10;99.90
45535;DHT22;35892;48.798;9.698;2023-01-24T11:01:14;5.10;99.90
45535;DHT22;35892;48.798;9.698;2023-01-24T11:03:46;5.10;99.90
45535;DHT22;35892;48.798;9.698;2023-01-24T11:09:12;5.00;99.90
45535;DHT22;35892;48.798;9.698;2023-01-24T11:11:45;5.00;99.90
45535;DHT22;35892;48.798;9.698;2023-01-24T11:14:17;5.00;99.90
45535;DHT22;35892;48.798;9.698;2023-01-24T11:16:50;5.00;99.90
45535;DHT22;35892;48.798;9.698;2023-01-24T11:19:20;5.00;99.90
45535;DHT22;35892;48.798;9.698;2023-01-24T11:21:52;5.00;99.90
45535;DHT22;35892;48.798;9.698;2023-01-24T11:24:22;5.00;99.90
45535;DHT22;35892;48.798;9.698;2023-01-24T11:29:28;5.00;99.90
45535;DHT22;35892;48.798;9.698;2023-01-24T11:32:05;5.10;99.90
45535;DHT22;35892;48.798;9.698;2023-01-24T11:35:27;5.10;99.90
45535;DHT22;35892;48.798;9.698;2023-01-24T11:40:38;5.20;99.90
45535;DHT22;35892;48.798;9.698;2023-01-24T11:56:18;5.30;99.90
45535;DHT22;35892;48.798;9.698;2023-01-24T11:59:26;5.30;99.90
45535;DHT22;35892;48.798;9.698;2023-01-24T12:09:52;5.40;99.90
45535;DHT22;35892;48.798;9.698;2023-01-24T12:23:18;5.60;99.90
45535;DHT22;35892;48.798;9.698;2023-01-24T12:25:50;5.60;99.90
45535;DHT22;35892;48.798;9.698;2023-01-24T12:28:25;5.60;99.90
45535;DHT22;35892;48.798;9.698;2023-01-24T12:30:54;5.60;99.90
45535;DHT22;35892;48.798;9.698;2023-01-24T12:35:50;5.60;99.90
45535;DHT22;35892;48.798;9.698;2023-01-24T12:38:21;5.70;99.90
45535;DHT22;35892;48.798;9.698;2023-01-24T12:46:12;5.80;99.90
45535;DHT22;35892;48.798;9.698;2023-01-24T12:48:45;5.80;99.90
45535;DHT22;35892;48.798;9.698;2023-01-24T12:51:24;5.80;99.90
45535;DHT22;35892;48.798;9.698;2023-01-24T12:54:06;5.80;99.90
45535;DHT22;35892;48.798;9.698;2023-01-24T12:59:02;5.70;99.90
45535;DHT22;35892;48.798;9.698;2023-01-24T13:12:12;5.70;99.90
45535;DHT22;35892;48.798;9.698;2023-01-24T13:14:41;5.70;99.90
45535;DHT22;35892;48.798;9.698;2023-01-24T13:30:27;5.60;99.90
45535;DHT22;35892;48.798;9.698;2023-01-24T13:32:56;5.60;99.90
45535;DHT22;35892;48.798;9.698;2023-01-24T13:35:27;5.60;99.90
45535;DHT22;35892;48.798;9.698;2023-01-24T13:37:59;5.60;99.90
45535;DHT22;35892;48.798;9.698;2023-01-24T13:40:30;5.70;99.90
45535;DHT22;35892;48.798;9.698;2023-01-24T13:43:04;5.60;99.90
45535;DHT22;35892;48.798;9.698;2023-01-24T13:45:50;5.70;99.90
45535;DHT22;35892;48.798;9.698;2023-01-24T13:56:27;5.50;99.90
45535;DHT22;35892;48.798;9.698;2023-01-24T13:58:55;5.40;99.90
45535;DHT22;35892;48.798;9.698;2023-01-24T14:01:24;5.40;99.90
45535;DHT22;35892;48.798;9.698;2023-01-24T14:03:58;5.40;99.90
45535;DHT22;35892;48.798;9.698;2023-01-24T14:06:38;5.40;99.90
45535;DHT22;35892;48.798;9.698;2023-01-24T14:09:27;5.40;99.90
45535;DHT22;35892;48.798;9.698;2023-01-24T14:11:57;5.40;99.90
45535;DHT22;35892;48.798;9.698;2023-01-24T14:14:32;5.40;99.90
45535;DHT22;35892;48.798;9.698;2023-01-24T14:17:01;5.30;99.90
45535;DHT22;35892;48.798;9.698;2023-01-24T14:19:35;5.20;99.90
45535;DHT22;35892;48.798;9.698;2023-01-24T14:22:14;5.20;99.90
45535;DHT22;35892;48.798;9.698;2023-01-24T14:24:51;5.20;99.90
45535;DHT22;35892;48.798;9.698;2023-01-24T14:27:29;5.20;99.90
45535;DHT22;35892;48.798;9.698;2023-01-24T14:32:49;5.20;99.90
45535;DHT22;35892;48.798;9.698;2023-01-24T14:35:21;5.20;99.90
45535;DHT22;35892;48.798;9.698;2023-01-24T14:37:49;5.20;99.90
45535;DHT22;35892;48.798;9.698;2023-01-24T14:40:20;5.10;99.90
45535;DHT22;35892;48.798;9.698;2023-01-24T14:42:50;5.20;99.90
45535;DHT22;35892;48.798;9.698;2023-01-24T14:45:21;5.10;99.90
45535;DHT22;35892;48.798;9.698;2023-01-24T14:47:51;5.00;99.90
45535;DHT22;35892;48.798;9.698;2023-01-24T14:52:48;5.00;99.90
45535;DHT22;35892;48.798;9.698;2023-01-24T14:55:37;5.00;99.90
45535;DHT22;35892;48.798;9.698;2023-01-24T14:58:16;5.00;99.90
45535;DHT22;35892;48.798;9.698;2023-01-24T15:00:49;4.90;99.90
45535;DHT22;35892;48.798;9.698;2023-01-24T15:03:17;4.80;99.90
45535;DHT22;35892;48.798;9.698;2023-01-24T15:05:54;4.80;99.90
45535;DHT22;35892;48.798;9.698;2023-01-24T15:08:21;4.90;99.90
45535;DHT22;35892;48.798;9.698;2023-01-24T15:10:52;4.80;99.90
45535;DHT22;35892;48.798;9.698;2023-01-24T15:13:24;4.80;99.90
45535;DHT22;35892;48.798;9.698;2023-01-24T15:15:52;4.80;99.90
45535;DHT22;35892;48.798;9.698;2023-01-24T15:18:25;4.80;99.90
45535;DHT22;35892;48.798;9.698;2023-01-24T15:20:52;4.90;99.90
45535;DHT22;35892;48.798;9.698;2023-01-24T15:23:22;4.90;99.90
45535;DHT22;35892;48.798;9.698;2023-01-24T15:25:52;4.90;99.90
45535;DHT22;35892;48.798;9.698;2023-01-24T15:28:23;4.80;99.90
45535;DHT22;35892;48.798;9.698;2023-01-24T15:31:01;4.70;99.90
45535;DHT22;35892;48.798;9.698;2023-01-24T15:34:01;4.70;99.90
45535;DHT22;35892;48.798;9.698;2023-01-24T15:36:29;4.70;99.90
45535;DHT22;35892;48.798;9.698;2023-01-24T15:38:57;4.70;99.90
45535;DHT22;35892;48.798;9.698;2023-01-24T15:41:24;4.70;99.90
45535;DHT22;35892;48.798;9.698;2023-01-24T15:44:12;4.70;99.90
45535;DHT22;35892;48.798;9.698;2023-01-24T15:46:42;4.70;99.90
45535;DHT22;35892;48.798;9.698;2023-01-24T15:49:29;4.80;99.90
45535;DHT22;35892;48.798;9.698;2023-01-24T15:54:29;4.60;99.90
45535;DHT22;35892;48.798;9.698;2023-01-24T15:57:00;4.60;99.90
45535;DHT22;35892;48.798;9.698;2023-01-24T15:59:27;4.60;99.90
45535;DHT22;35892;48.798;9.698;2023-01-24T16:01:57;4.60;99.90
45535;DHT22;35892;48.798;9.698;2023-01-24T16:04:25;4.60;99.90
45535;DHT22;35892;48.798;9.698;2023-01-24T16:06:54;4.60;99.90
45535;DHT22;35892;48.798;9.698;2023-01-24T16:09:21;4.60;99.90
45535;DHT22;35892;48.798;9.698;2023-01-24T16:11:47;4.60;99.90
45535;DHT22;35892;48.798;9.698;2023-01-24T16:14:21;4.60;99.90
45535;DHT22;35892;48.798;9.698;2023-01-24T16:16:53;4.60;99.90
45535;DHT22;35892;48.798;9.698;2023-01-24T16:19:23;4.60;99.90
45535;DHT22;35892;48.798;9.698;2023-01-24T16:21:50;4.50;99.90
45535;DHT22;35892;48.798;9.698;2023-01-24T16:24:16;4.50;99.90
45535;DHT22;35892;48.798;9.698;2023-01-24T16:26:45;4.60;99.90
45535;DHT22;35892;48.798;9.698;2023-01-24T16:29:19;4.60;99.90
45535;DHT22;35892;48.798;9.698;2023-01-24T16:31:49;4.50;99.90
45535;DHT22;35892;48.798;9.698;2023-01-24T16:34:15;4.60;99.90
45535;DHT22;35892;48.798;9.698;2023-01-24T16:36:42;4.60;99.90
45535;DHT22;35892;48.798;9.698;2023-01-24T16:39:09;4.50;99.90
45535;DHT22;35892;48.798;9.698;2023-01-24T16:41:39;4.50;99.90
45535;DHT22;35892;48.798;9.698;2023-01-24T16:44:06;4.50;99.90
45535;DHT22;35892;48.798;9.698;2023-01-24T16:46:33;4.60;99.90
45535;DHT22;35892;48.798;9.698;2023-01-24T16:49:00;4.60;99.90
45535;DHT22;35892;48.798;9.698;2023-01-24T16:51:26;4.50;99.90
45535;DHT22;35892;48.798;9.698;2023-01-24T16:53:56;4.50;99.90
45535;DHT22;35892;48.798;9.698;2023-01-24T16:56:23;4.50;99.90
45535;DHT22;35892;48.798;9.698;2023-01-24T16:58:55;4.40;99.90
45535;DHT22;35892;48.798;9.698;2023-01-24T17:01:27;4.40;99.90
45535;DHT22;35892;48.798;9.698;2023-01-24T17:03:56;4.40;99.90
45535;DHT22;35892;48.798;9.698;2023-01-24T17:06:23;4.50;99.90
45535;DHT22;35892;48.798;9.698;2023-01-24T17:08:52;4.60;99.90
45535;DHT22;35892;48.798;9.698;2023-01-24T17:11:19;4.60;99.90
45535;DHT22;35892;48.798;9.698;2023-01-24T17:13:49;4.50;99.90
45535;DHT22;35892;48.798;9.698;2023-01-24T17:16:16;4.50;99.90
45535;DHT22;35892;48.798;9.698;2023-01-24T17:18:43;4.50;99.90
45535;DHT22;35892;48.798;9.698;2023-01-24T17:21:11;4.50;99.90
45535;DHT22;35892;48.798;9.698;2023-01-24T17:23:40;4.40;99.90
45535;DHT22;35892;48.798;9.698;2023-01-24T17:26:08;4.50;99.90
45535;DHT22;35892;48.798;9.698;2023-01-24T17:28:38;4.40;99.90
45535;DHT22;35892;48.798;9.698;2023-01-24T17:31:11;4.40;99.90
45535;DHT22;35892;48.798;9.698;2023-01-24T17:33:40;4.40;99.90
45535;DHT22;35892;48.798;9.698;2023-01-24T17:36:07;4.40;99.90
45535;DHT22;35892;48.798;9.698;2023-01-24T17:38:34;4.50;99.90
45535;DHT22;35892;48.798;9.698;2023-01-24T17:41:04;4.40;99.90
45535;DHT22;35892;48.798;9.698;2023-01-24T17:43:31;4.40;99.90
45535;DHT22;35892;48.798;9.698;2023-01-24T17:46:16;4.50;99.90
45535;DHT22;35892;48.798;9.698;2023-01-24T17:48:43;4.40;99.90
45535;DHT22;35892;48.798;9.698;2023-01-24T17:51:15;4.40;99.90
45535;DHT22;35892;48.798;9.698;2023-01-24T17:53:44;4.40;99.90
45535;DHT22;35892;48.798;9.698;2023-01-24T17:56:11;4.40;99.90
45535;DHT22;35892;48.798;9.698;2023-01-24T17:58:39;4.30;99.90
45535;DHT22;35892;48.798;9.698;2023-01-24T18:01:06;4.30;99.90
45535;DHT22;35892;48.798;9.698;2023-01-24T18:03:33;4.30;99.90
45535;DHT22;35892;48.798;9.698;2023-01-24T18:06:01;4.30;99.90
45535;DHT22;35892;48.798;9.698;2023-01-24T18:08:30;4.20;99.90
45535;DHT22;35892;48.798;9.698;2023-01-24T18:11:02;4.20;99.90
45535;DHT22;35892;48.798;9.698;2023-01-24T18:13:31;4.30;99.90